createdAt,value
2019-01-18T00:01:14.455Z,1001.6
2019-01-18T00:02:14.627Z,1001.63
2019-01-18T00:03:14.988Z,1001.66
2019-01-18T00:04:15.012Z,1001.64
2019-01-18T00:05:15.036Z,1001.65
2019-01-18T00:06:15.053Z,1001.67
2019-01-18T00:07:15.455Z,1001.68
2019-01-18T00:08:15.477Z,1001.7
2019-01-18T00:09:15.591Z,1001.73
2019-01-18T00:10:15.611Z,1001.74
2019-01-18T00:11:15.781Z,1001.75
2019-01-18T00:12:15.804Z,1001.7
2019-01-18T00:13:15.824Z,1001.72
2019-01-18T00:14:15.925Z,1001.76
2019-01-18T00:15:16.280Z,1001.74
2019-01-18T00:16:16.434Z,1001.7
2019-01-18T00:17:16.457Z,1001.7
2019-01-18T00:18:16.566Z,1001.73
2019-01-18T00:19:16.984Z,1001.73
2019-01-18T00:20:17.119Z,1001.74
2019-01-18T00:21:17.139Z,1001.75
2019-01-18T00:22:17.526Z,1001.72
2019-01-18T00:23:17.546Z,1001.7
2019-01-18T00:24:17.561Z,1001.73
2019-01-18T00:25:17.644Z,1001.8
2019-01-18T00:26:17.664Z,1001.74
2019-01-18T00:27:18.046Z,1001.75
2019-01-18T00:28:18.435Z,1001.74
2019-01-18T00:29:18.842Z,1001.76
2019-01-18T00:30:18.864Z,1001.86
2019-01-18T00:31:18.885Z,1001.74
2019-01-18T00:32:18.905Z,1001.76
2019-01-18T00:33:18.970Z,1001.82
2019-01-18T00:34:18.949Z,1001.81
2019-01-18T00:35:18.993Z,1001.83
2019-01-18T00:36:19.133Z,1001.87
2019-01-18T00:37:19.153Z,1001.79
2019-01-18T00:38:19.282Z,1001.85
2019-01-18T00:39:19.692Z,1001.88
2019-01-18T00:40:20.096Z,1001.88
2019-01-18T00:41:20.118Z,1001.83
2019-01-18T00:42:20.281Z,1001.82
2019-01-18T00:43:20.713Z,1001.85
2019-01-18T00:44:20.749Z,1001.86
2019-01-18T00:45:20.891Z,1001.93
2019-01-18T00:46:20.915Z,1001.86
2019-01-18T00:47:21.029Z,1001.89
2019-01-18T00:48:21.415Z,1001.85
2019-01-18T00:49:21.440Z,1001.93
2019-01-18T00:50:21.548Z,1001.94
2019-01-18T00:51:21.630Z,1002.05
2019-01-18T00:52:21.700Z,1002.05
2019-01-18T00:53:22.068Z,1002
2019-01-18T00:54:22.083Z,1002.04
2019-01-18T00:55:22.454Z,1002.13
2019-01-18T00:56:22.563Z,1002.05
2019-01-18T00:57:22.950Z,1002.09
2019-01-18T00:58:22.994Z,1002.16
2019-01-18T00:59:23.349Z,1002.17
2019-01-18T01:00:23.362Z,1002.18
2019-01-18T01:01:23.394Z,1002.16
2019-01-18T01:02:23.809Z,1002.31
2019-01-18T01:03:23.995Z,1002.34
2019-01-18T01:04:24.433Z,1002.45
2019-01-18T01:05:24.561Z,1002.34
2019-01-18T01:06:24.654Z,1002.47
2019-01-18T01:07:25.047Z,1002.36
2019-01-18T01:08:25.133Z,1002.5
2019-01-18T01:09:25.542Z,1002.65
2019-01-18T01:10:25.546Z,1002.74
2019-01-18T01:11:25.925Z,1002.77
2019-01-18T01:12:26.055Z,1002.8
2019-01-18T01:13:26.081Z,1002.88
2019-01-18T01:14:26.096Z,1002.99
2019-01-18T01:15:26.115Z,1003.04
2019-01-18T01:16:26.137Z,1003.02
2019-01-18T01:17:26.280Z,1003.04
2019-01-18T01:18:26.289Z,1003.13
2019-01-18T01:19:26.342Z,1003.09
2019-01-18T01:20:26.323Z,1003.19
2019-01-18T01:21:26.360Z,1003.22
2019-01-18T01:22:26.399Z,1003.23
2019-01-18T01:23:26.827Z,1003.24
2019-01-18T01:24:26.839Z,1003.38
2019-01-18T01:25:26.863Z,1003.42
2019-01-18T01:26:26.980Z,1003.47
2019-01-18T01:27:27.414Z,1003.48
2019-01-18T01:28:27.534Z,1003.61
2019-01-18T01:29:27.563Z,1003.58
2019-01-18T01:30:27.580Z,1003.66
2019-01-18T01:31:27.973Z,1003.74
2019-01-18T01:32:28.122Z,1003.77
2019-01-18T01:33:28.300Z,1003.77
2019-01-18T01:34:28.743Z,1003.82
2019-01-18T01:35:28.741Z,1003.79
2019-01-18T01:36:28.768Z,1003.87
2019-01-18T01:37:29.179Z,1003.93
2019-01-18T01:38:29.540Z,1004
2019-01-18T01:39:29.556Z,1004.04
2019-01-18T01:40:29.935Z,1004.03
2019-01-18T01:41:29.966Z,1004.08
2019-01-18T01:42:30.313Z,1004.23
2019-01-18T01:43:30.327Z,1004.13
2019-01-18T01:44:30.364Z,1004.19
2019-01-18T01:45:30.401Z,1004.15
2019-01-18T01:46:30.556Z,1004.23
2019-01-18T01:47:30.920Z,1004.3
2019-01-18T01:48:30.941Z,1004.36
2019-01-18T01:49:30.972Z,1004.32
2019-01-18T01:50:31.010Z,1004.34
2019-01-18T01:51:31.006Z,1004.31
2019-01-18T01:52:31.029Z,1004.45
2019-01-18T01:53:31.371Z,1004.41
2019-01-18T01:54:31.391Z,1004.41
2019-01-18T01:55:31.410Z,1004.43
2019-01-18T01:56:31.449Z,1004.56
2019-01-18T01:57:31.456Z,1004.52
2019-01-18T01:58:31.472Z,1004.49
2019-01-18T01:59:31.486Z,1004.55
2019-01-18T02:00:31.514Z,1004.55
2019-01-18T02:01:31.650Z,1004.64
2019-01-18T02:02:31.920Z,1004.66
2019-01-18T02:03:32.329Z,1004.72
2019-01-18T02:04:32.345Z,1004.73
2019-01-18T02:05:32.456Z,1004.8
2019-01-18T02:06:32.484Z,1004.77
2019-01-18T02:07:32.857Z,1004.79
2019-01-18T02:08:33.283Z,1004.78
2019-01-18T02:09:33.302Z,1004.8
2019-01-18T02:10:33.322Z,1004.9
2019-01-18T02:11:33.449Z,1004.96
2019-01-18T02:12:33.804Z,1004.82
2019-01-18T02:13:33.822Z,1004.93
2019-01-18T02:14:34.185Z,1004.93
2019-01-18T02:15:34.320Z,1004.97
2019-01-18T02:16:34.336Z,1005.01
2019-01-18T02:17:34.358Z,1005.03
2019-01-18T02:18:34.384Z,1005.02
2019-01-18T02:19:34.403Z,1005.02
2019-01-18T02:20:34.422Z,1005.09
2019-01-18T02:21:34.536Z,1005.12
2019-01-18T02:22:34.900Z,1005.1
2019-01-18T02:23:35.238Z,1005.15
2019-01-18T02:24:35.625Z,1005.16
2019-01-18T02:25:35.632Z,1005.2
2019-01-18T02:26:36.000Z,1005.21
2019-01-18T02:27:36.015Z,1005.2
2019-01-18T02:28:36.042Z,1005.24
2019-01-18T02:29:36.065Z,1005.21
2019-01-18T02:30:36.454Z,1005.24
2019-01-18T02:31:36.495Z,1005.31
2019-01-18T02:32:36.506Z,1005.25
2019-01-18T02:33:36.905Z,1005.33
2019-01-18T02:34:37.248Z,1005.31
2019-01-18T02:35:37.658Z,1005.4
2019-01-18T02:36:37.682Z,1005.39
2019-01-18T02:37:37.838Z,1005.42
2019-01-18T02:38:37.928Z,1005.44
2019-01-18T02:39:37.949Z,1005.46
2019-01-18T02:40:37.964Z,1005.48
2019-01-18T02:41:37.990Z,1005.49
2019-01-18T02:42:38.009Z,1005.54
2019-01-18T02:43:38.032Z,1005.51
2019-01-18T02:44:38.411Z,1005.56
2019-01-18T02:45:38.587Z,1005.54
2019-01-18T02:46:38.990Z,1005.66
2019-01-18T02:47:39.169Z,1005.6
2019-01-18T02:48:39.298Z,1005.67
2019-01-18T02:49:39.371Z,1005.67
2019-01-18T02:50:39.493Z,1005.62
2019-01-18T02:51:39.407Z,1005.69
2019-01-18T02:52:39.725Z,1005.71
2019-01-18T02:53:39.812Z,1005.74
2019-01-18T02:54:40.100Z,1005.73
2019-01-18T02:55:40.114Z,1005.76
2019-01-18T02:56:40.529Z,1005.78
2019-01-18T02:57:40.918Z,1005.77
2019-01-18T02:58:40.954Z,1005.78
2019-01-18T02:59:40.981Z,1005.81
